sensor_id;sensor_type;location;lat;lon;timestamp;P1;durP1;ratioP1;P2;durP2;ratioP2
22040;SDS011;11184;52.444;13.578;2023-02-02T00:00:44;20.80;;;4.07;;
22040;SDS011;11184;52.444;13.578;2023-02-02T00:03:29;13.50;;;2.85;;
22040;SDS011;11184;52.444;13.578;2023-02-02T00:06:14;16.40;;;2.65;;
22040;SDS011;11184;52.444;13.578;2023-02-02T00:08:59;11.70;;;3.03;;
22040;SDS011;11184;52.444;13.578;2023-02-02T00:11:45;15.80;;;3.22;;
22040;SDS011;11184;52.444;13.578;2023-02-02T00:14:29;24.98;;;3.80;;
22040;SDS011;11184;52.444;13.578;2023-02-02T00:17:14;21.63;;;3.95;;
22040;SDS011;11184;52.444;13.578;2023-02-02T00:19:59;16.05;;;3.08;;
22040;SDS011;11184;52.444;13.578;2023-02-02T00:22:43;15.80;;;3.13;;
22040;SDS011;11184;52.444;13.578;2023-02-02T00:25:28;22.48;;;3.97;;
22040;SDS011;11184;52.444;13.578;2023-02-02T00:28:13;9.18;;;2.85;;
22040;SDS011;11184;52.444;13.578;2023-02-02T00:30:58;16.45;;;3.22;;
22040;SDS011;11184;52.444;13.578;2023-02-02T00:33:44;21.08;;;4.30;;
22040;SDS011;11184;52.444;13.578;2023-02-02T00:36:28;16.20;;;3.47;;
22040;SDS011;11184;52.444;13.578;2023-02-02T00:39:14;15.82;;;3.40;;
22040;SDS011;11184;52.444;13.578;2023-02-02T00:42:00;11.30;;;3.40;;
22040;SDS011;11184;52.444;13.578;2023-02-02T00:44:45;14.65;;;2.88;;
22040;SDS011;11184;52.444;13.578;2023-02-02T00:47:49;11.15;;;4.15;;
22040;SDS011;11184;52.444;13.578;2023-02-02T00:50:34;17.35;;;3.03;;
22040;SDS011;11184;52.444;13.578;2023-02-02T00:53:18;25.52;;;4.45;;
22040;SDS011;11184;52.444;13.578;2023-02-02T00:56:04;15.07;;;3.10;;
22040;SDS011;11184;52.444;13.578;2023-02-02T00:58:48;11.93;;;2.88;;
22040;SDS011;11184;52.444;13.578;2023-02-02T01:01:33;19.10;;;3.50;;
22040;SDS011;11184;52.444;13.578;2023-02-02T01:04:18;20.25;;;3.67;;
22040;SDS011;11184;52.444;13.578;2023-02-02T01:07:02;12.10;;;3.53;;
22040;SDS011;11184;52.444;13.578;2023-02-02T01:09:47;18.90;;;3.55;;
22040;SDS011;11184;52.444;13.578;2023-02-02T01:12:32;16.83;;;3.08;;
22040;SDS011;11184;52.444;13.578;2023-02-02T01:15:17;17.88;;;3.92;;
22040;SDS011;11184;52.444;13.578;2023-02-02T01:18:02;14.90;;;3.83;;
22040;SDS011;11184;52.444;13.578;2023-02-02T01:20:55;13.25;;;3.45;;
22040;SDS011;11184;52.444;13.578;2023-02-02T01:23:39;16.83;;;3.15;;
22040;SDS011;11184;52.444;13.578;2023-02-02T01:26:24;18.27;;;4.65;;
22040;SDS011;11184;52.444;13.578;2023-02-02T01:29:09;12.05;;;2.65;;
22040;SDS011;11184;52.444;13.578;2023-02-02T01:31:54;20.55;;;3.55;;
22040;SDS011;11184;52.444;13.578;2023-02-02T01:34:39;13.93;;;3.03;;
22040;SDS011;11184;52.444;13.578;2023-02-02T01:37:24;10.02;;;2.75;;
22040;SDS011;11184;52.444;13.578;2023-02-02T01:40:09;17.98;;;4.47;;
22040;SDS011;11184;52.444;13.578;2023-02-02T01:42:54;14.73;;;3.65;;
22040;SDS011;11184;52.444;13.578;2023-02-02T01:45:38;21.60;;;3.53;;
22040;SDS011;11184;52.444;13.578;2023-02-02T01:48:24;16.33;;;2.95;;
22040;SDS011;11184;52.444;13.578;2023-02-02T01:51:10;13.70;;;4.18;;
22040;SDS011;11184;52.444;13.578;2023-02-02T01:53:56;20.65;;;4.15;;
22040;SDS011;11184;52.444;13.578;2023-02-02T01:56:45;11.68;;;2.85;;
22040;SDS011;11184;52.444;13.578;2023-02-02T01:59:30;22.75;;;3.58;;
22040;SDS011;11184;52.444;13.578;2023-02-02T02:02:15;11.35;;;2.53;;
22040;SDS011;11184;52.444;13.578;2023-02-02T02:05:00;18.85;;;3.80;;
22040;SDS011;11184;52.444;13.578;2023-02-02T02:07:46;17.02;;;3.15;;
22040;SDS011;11184;52.444;13.578;2023-02-02T02:10:32;21.23;;;4.53;;
22040;SDS011;11184;52.444;13.578;2023-02-02T02:13:17;17.08;;;3.95;;
22040;SDS011;11184;52.444;13.578;2023-02-02T02:16:05;16.35;;;2.92;;
22040;SDS011;11184;52.444;13.578;2023-02-02T02:19:23;8.55;;;2.35;;
22040;SDS011;11184;52.444;13.578;2023-02-02T02:22:13;16.85;;;3.42;;
22040;SDS011;11184;52.444;13.578;2023-02-02T02:31:47;21.48;;;4.50;;
22040;SDS011;11184;52.444;13.578;2023-02-02T02:37:50;21.42;;;3.97;;
22040;SDS011;11184;52.444;13.578;2023-02-02T02:40:52;14.68;;;4.45;;
22040;SDS011;11184;52.444;13.578;2023-02-02T02:43:39;14.70;;;3.15;;
22040;SDS011;11184;52.444;13.578;2023-02-02T02:46:25;24.00;;;4.13;;
22040;SDS011;11184;52.444;13.578;2023-02-02T02:49:10;19.83;;;4.15;;
22040;SDS011;11184;52.444;13.578;2023-02-02T02:51:55;14.85;;;3.95;;
22040;SDS011;11184;52.444;13.578;2023-02-02T02:54:44;10.02;;;2.97;;
22040;SDS011;11184;52.444;13.578;2023-02-02T02:57:36;19.10;;;2.75;;
22040;SDS011;11184;52.444;13.578;2023-02-02T03:00:34;16.50;;;2.58;;
22040;SDS011;11184;52.444;13.578;2023-02-02T03:06:20;14.10;;;2.78;;
22040;SDS011;11184;52.444;13.578;2023-02-02T03:09:07;15.38;;;2.67;;
22040;SDS011;11184;52.444;13.578;2023-02-02T03:11:53;20.13;;;2.90;;
22040;SDS011;11184;52.444;13.578;2023-02-02T03:14:38;9.45;;;3.08;;
22040;SDS011;11184;52.444;13.578;2023-02-02T03:17:23;9.55;;;3.15;;
22040;SDS011;11184;52.444;13.578;2023-02-02T03:20:08;9.65;;;2.65;;
22040;SDS011;11184;52.444;13.578;2023-02-02T03:22:52;10.27;;;2.88;;
22040;SDS011;11184;52.444;13.578;2023-02-02T03:25:37;8.00;;;2.38;;
22040;SDS011;11184;52.444;13.578;2023-02-02T03:28:22;11.50;;;2.45;;
22040;SDS011;11184;52.444;13.578;2023-02-02T03:31:07;9.60;;;2.60;;
22040;SDS011;11184;52.444;13.578;2023-02-02T03:33:51;8.18;;;2.53;;
22040;SDS011;11184;52.444;13.578;2023-02-02T03:36:36;13.07;;;2.47;;
22040;SDS011;11184;52.444;13.578;2023-02-02T03:39:21;7.50;;;2.13;;
22040;SDS011;11184;52.444;13.578;2023-02-02T03:42:05;11.95;;;3.22;;
22040;SDS011;11184;52.444;13.578;2023-02-02T03:44:50;9.68;;;2.20;;
22040;SDS011;11184;52.444;13.578;2023-02-02T03:47:35;9.40;;;1.85;;
22040;SDS011;11184;52.444;13.578;2023-02-02T03:50:19;9.35;;;1.90;;
22040;SDS011;11184;52.444;13.578;2023-02-02T03:53:04;18.27;;;2.63;;
22040;SDS011;11184;52.444;13.578;2023-02-02T03:55:48;13.98;;;2.78;;
22040;SDS011;11184;52.444;13.578;2023-02-02T03:58:33;19.40;;;3.05;;
22040;SDS011;11184;52.444;13.578;2023-02-02T04:01:24;15.32;;;2.13;;
22040;SDS011;11184;52.444;13.578;2023-02-02T04:04:09;9.57;;;2.22;;
22040;SDS011;11184;52.444;13.578;2023-02-02T04:06:53;7.75;;;1.83;;
22040;SDS011;11184;52.444;13.578;2023-02-02T04:09:38;7.40;;;1.90;;
22040;SDS011;11184;52.444;13.578;2023-02-02T04:12:23;8.02;;;1.98;;
22040;SDS011;11184;52.444;13.578;2023-02-02T04:15:08;9.98;;;1.67;;
22040;SDS011;11184;52.444;13.578;2023-02-02T04:17:52;9.35;;;1.77;;
22040;SDS011;11184;52.444;13.578;2023-02-02T04:20:37;7.55;;;2.63;;
22040;SDS011;11184;52.444;13.578;2023-02-02T04:23:21;3.83;;;1.55;;
22040;SDS011;11184;52.444;13.578;2023-02-02T04:26:06;7.35;;;1.83;;
22040;SDS011;11184;52.444;13.578;2023-02-02T04:28:51;5.57;;;2.15;;
22040;SDS011;11184;52.444;13.578;2023-02-02T04:31:36;13.45;;;4.07;;
22040;SDS011;11184;52.444;13.578;2023-02-02T04:34:21;7.40;;;2.22;;
22040;SDS011;11184;52.444;13.578;2023-02-02T04:37:06;12.52;;;2.33;;
22040;SDS011;11184;52.444;13.578;2023-02-02T04:39:50;6.55;;;2.08;;
22040;SDS011;11184;52.444;13.578;2023-02-02T04:42:38;7.63;;;1.50;;
22040;SDS011;11184;52.444;13.578;2023-02-02T04:45:22;7.25;;;1.60;;
22040;SDS011;11184;52.444;13.578;2023-02-02T04:48:07;8.90;;;1.83;;
22040;SDS011;11184;52.444;13.578;2023-02-02T04:50:59;10.43;;;1.50;;
22040;SDS011;11184;52.444;13.578;2023-02-02T04:53:44;11.05;;;2.65;;
22040;SDS011;11184;52.444;13.578;2023-02-02T04:56:28;15.85;;;3.80;;
22040;SDS011;11184;52.444;13.578;2023-02-02T04:59:13;13.75;;;2.97;;
22040;SDS011;11184;52.444;13.578;2023-02-02T05:01:58;9.60;;;2.80;;
22040;SDS011;11184;52.444;13.578;2023-02-02T05:04:43;17.08;;;5.35;;
22040;SDS011;11184;52.444;13.578;2023-02-02T05:07:29;8.90;;;2.60;;
22040;SDS011;11184;52.444;13.578;2023-02-02T05:10:14;14.00;;;3.53;;
22040;SDS011;11184;52.444;13.578;2023-02-02T05:12:58;11.95;;;2.70;;
22040;SDS011;11184;52.444;13.578;2023-02-02T05:15:43;12.95;;;2.00;;
22040;SDS011;11184;52.444;13.578;2023-02-02T05:18:27;9.88;;;2.00;;
22040;SDS011;11184;52.444;13.578;2023-02-02T05:21:14;7.68;;;1.92;;
22040;SDS011;11184;52.444;13.578;2023-02-02T05:23:58;6.28;;;1.75;;
22040;SDS011;11184;52.444;13.578;2023-02-02T05:26:44;13.23;;;2.10;;
22040;SDS011;11184;52.444;13.578;2023-02-02T05:29:29;11.68;;;2.40;;
22040;SDS011;11184;52.444;13.578;2023-02-02T05:32:14;7.65;;;3.17;;
22040;SDS011;11184;52.444;13.578;2023-02-02T05:34:59;16.38;;;2.60;;
22040;SDS011;11184;52.444;13.578;2023-02-02T05:37:43;13.75;;;3.10;;
22040;SDS011;11184;52.444;13.578;2023-02-02T05:40:28;12.90;;;2.53;;
22040;SDS011;11184;52.444;13.578;2023-02-02T05:43:13;15.68;;;3.42;;
22040;SDS011;11184;52.444;13.578;2023-02-02T05:45:58;5.00;;;1.80;;
22040;SDS011;11184;52.444;13.578;2023-02-02T05:48:43;11.45;;;2.47;;
22040;SDS011;11184;52.444;13.578;2023-02-02T05:51:28;13.38;;;3.65;;
22040;SDS011;11184;52.444;13.578;2023-02-02T05:54:14;11.00;;;2.70;;
22040;SDS011;11184;52.444;13.578;2023-02-02T05:57:02;7.53;;;1.88;;
22040;SDS011;11184;52.444;13.578;2023-02-02T05:59:47;8.52;;;2.45;;
22040;SDS011;11184;52.444;13.578;2023-02-02T06:02:31;11.80;;;2.13;;
22040;SDS011;11184;52.444;13.578;2023-02-02T06:05:16;18.08;;;2.55;;
22040;SDS011;11184;52.444;13.578;2023-02-02T06:08:01;11.10;;;2.70;;
22040;SDS011;11184;52.444;13.578;2023-02-02T06:10:45;8.38;;;2.15;;
22040;SDS011;11184;52.444;13.578;2023-02-02T06:13:30;16.10;;;2.70;;
22040;SDS011;11184;52.444;13.578;2023-02-02T06:16:15;9.98;;;2.22;;
22040;SDS011;11184;52.444;13.578;2023-02-02T06:19:00;10.00;;;2.03;;
22040;SDS011;11184;52.444;13.578;2023-02-02T06:21:44;12.40;;;2.53;;
22040;SDS011;11184;52.444;13.578;2023-02-02T06:24:29;14.85;;;3.33;;
22040;SDS011;11184;52.444;13.578;2023-02-02T06:27:13;11.95;;;2.95;;
22040;SDS011;11184;52.444;13.578;2023-02-02T06:29:58;16.30;;;2.40;;
22040;SDS011;11184;52.444;13.578;2023-02-02T06:32:43;9.32;;;2.63;;
22040;SDS011;11184;52.444;13.578;2023-02-02T06:35:27;10.95;;;2.38;;
22040;SDS011;11184;52.444;13.578;2023-02-02T06:38:12;12.50;;;2.92;;
22040;SDS011;11184;52.444;13.578;2023-02-02T06:41:00;12.77;;;2.60;;
22040;SDS011;11184;52.444;13.578;2023-02-02T06:43:45;12.45;;;2.22;;
22040;SDS011;11184;52.444;13.578;2023-02-02T06:46:30;15.60;;;2.67;;
22040;SDS011;11184;52.444;13.578;2023-02-02T06:49:15;12.30;;;3.28;;
22040;SDS011;11184;52.444;13.578;2023-02-02T06:51:59;9.60;;;2.47;;
22040;SDS011;11184;52.444;13.578;2023-02-02T06:54:44;10.77;;;2.28;;
22040;SDS011;11184;52.444;13.578;2023-02-02T06:57:29;11.52;;;2.00;;
22040;SDS011;11184;52.444;13.578;2023-02-02T07:00:14;16.30;;;2.10;;
22040;SDS011;11184;52.444;13.578;2023-02-02T07:02:59;8.95;;;2.15;;
22040;SDS011;11184;52.444;13.578;2023-02-02T07:05:43;11.45;;;2.35;;
22040;SDS011;11184;52.444;13.578;2023-02-02T07:08:28;10.57;;;1.67;;
22040;SDS011;11184;52.444;13.578;2023-02-02T07:11:12;13.02;;;2.70;;
22040;SDS011;11184;52.444;13.578;2023-02-02T07:13:57;8.40;;;3.13;;
22040;SDS011;11184;52.444;13.578;2023-02-02T07:16:41;19.38;;;4.47;;
22040;SDS011;11184;52.444;13.578;2023-02-02T07:19:26;10.23;;;2.33;;
22040;SDS011;11184;52.444;13.578;2023-02-02T07:22:11;10.98;;;3.25;;
22040;SDS011;11184;52.444;13.578;2023-02-02T07:24:55;10.40;;;2.85;;
22040;SDS011;11184;52.444;13.578;2023-02-02T07:27:40;17.40;;;2.80;;
22040;SDS011;11184;52.444;13.578;2023-02-02T07:30:24;16.45;;;3.65;;
22040;SDS011;11184;52.444;13.578;2023-02-02T07:33:12;11.90;;;2.20;;
22040;SDS011;11184;52.444;13.578;2023-02-02T07:35:56;19.63;;;3.67;;
22040;SDS011;11184;52.444;13.578;2023-02-02T07:38:41;12.35;;;2.78;;
22040;SDS011;11184;52.444;13.578;2023-02-02T07:41:26;10.13;;;2.55;;
22040;SDS011;11184;52.444;13.578;2023-02-02T07:44:14;10.70;;;2.40;;
22040;SDS011;11184;52.444;13.578;2023-02-02T07:46:59;6.50;;;2.10;;
22040;SDS011;11184;52.444;13.578;2023-02-02T07:49:43;6.30;;;2.03;;
22040;SDS011;11184;52.444;13.578;2023-02-02T07:52:28;4.43;;;2.20;;
22040;SDS011;11184;52.444;13.578;2023-02-02T07:55:13;12.13;;;3.15;;
22040;SDS011;11184;52.444;13.578;2023-02-02T07:57:58;17.00;;;5.32;;
22040;SDS011;11184;52.444;13.578;2023-02-02T08:00:42;8.63;;;3.55;;
22040;SDS011;11184;52.444;13.578;2023-02-02T08:03:27;13.40;;;2.47;;
22040;SDS011;11184;52.444;13.578;2023-02-02T08:08:57;9.27;;;3.20;;
22040;SDS011;11184;52.444;13.578;2023-02-02T08:11:42;19.38;;;4.15;;
22040;SDS011;11184;52.444;13.578;2023-02-02T08:14:27;11.05;;;4.20;;
22040;SDS011;11184;52.444;13.578;2023-02-02T08:17:12;12.60;;;3.33;;
22040;SDS011;11184;52.444;13.578;2023-02-02T08:19:56;12.23;;;2.70;;
22040;SDS011;11184;52.444;13.578;2023-02-02T08:22:41;15.65;;;3.28;;
22040;SDS011;11184;52.444;13.578;2023-02-02T08:25:26;7.13;;;1.83;;
22040;SDS011;11184;52.444;13.578;2023-02-02T08:28:11;10.35;;;2.20;;
22040;SDS011;11184;52.444;13.578;2023-02-02T08:30:55;13.45;;;3.53;;
22040;SDS011;11184;52.444;13.578;2023-02-02T08:33:40;11.60;;;3.72;;
22040;SDS011;11184;52.444;13.578;2023-02-02T08:36:26;16.35;;;3.28;;
22040;SDS011;11184;52.444;13.578;2023-02-02T08:39:11;17.42;;;2.72;;
22040;SDS011;11184;52.444;13.578;2023-02-02T08:41:56;18.92;;;3.10;;
22040;SDS011;11184;52.444;13.578;2023-02-02T08:44:41;17.65;;;3.83;;
22040;SDS011;11184;52.444;13.578;2023-02-02T08:47:28;15.30;;;3.42;;
22040;SDS011;11184;52.444;13.578;2023-02-02T08:50:13;7.72;;;2.30;;
22040;SDS011;11184;52.444;13.578;2023-02-02T08:52:57;7.10;;;2.28;;
22040;SDS011;11184;52.444;13.578;2023-02-02T08:55:42;16.55;;;2.60;;
22040;SDS011;11184;52.444;13.578;2023-02-02T08:58:27;12.68;;;2.88;;
22040;SDS011;11184;52.444;13.578;2023-02-02T09:01:12;12.75;;;3.03;;
22040;SDS011;11184;52.444;13.578;2023-02-02T09:03:58;10.95;;;2.70;;
22040;SDS011;11184;52.444;13.578;2023-02-02T09:06:44;25.25;;;2.45;;
22040;SDS011;11184;52.444;13.578;2023-02-02T09:09:29;8.25;;;2.30;;
22040;SDS011;11184;52.444;13.578;2023-02-02T09:12:13;8.52;;;2.10;;
22040;SDS011;11184;52.444;13.578;2023-02-02T09:14:58;8.55;;;1.77;;
22040;SDS011;11184;52.444;13.578;2023-02-02T09:17:43;15.65;;;3.17;;
22040;SDS011;11184;52.444;13.578;2023-02-02T09:20:27;14.23;;;2.80;;
22040;SDS011;11184;52.444;13.578;2023-02-02T09:23:12;12.90;;;2.25;;
22040;SDS011;11184;52.444;13.578;2023-02-02T09:25:56;16.20;;;2.15;;
22040;SDS011;11184;52.444;13.578;2023-02-02T09:28:43;11.02;;;2.72;;
22040;SDS011;11184;52.444;13.578;2023-02-02T09:31:28;11.95;;;1.92;;
22040;SDS011;11184;52.444;13.578;2023-02-02T09:34:13;11.95;;;2.08;;
22040;SDS011;11184;52.444;13.578;2023-02-02T09:36:59;14.13;;;2.33;;
22040;SDS011;11184;52.444;13.578;2023-02-02T09:39:43;6.13;;;1.98;;
22040;SDS011;11184;52.444;13.578;2023-02-02T09:42:33;9.80;;;2.63;;
22040;SDS011;11184;52.444;13.578;2023-02-02T09:45:28;9.20;;;1.77;;
22040;SDS011;11184;52.444;13.578;2023-02-02T09:48:25;9.27;;;2.45;;
22040;SDS011;11184;52.444;13.578;2023-02-02T09:51:12;9.07;;;2.45;;
22040;SDS011;11184;52.444;13.578;2023-02-02T09:54:01;11.07;;;4.65;;
22040;SDS011;11184;52.444;13.578;2023-02-02T09:56:50;19.08;;;5.15;;
22040;SDS011;11184;52.444;13.578;2023-02-02T09:59:38;18.77;;;2.92;;
22040;SDS011;11184;52.444;13.578;2023-02-02T10:02:41;14.35;;;2.72;;
22040;SDS011;11184;52.444;13.578;2023-02-02T10:05:41;16.92;;;3.58;;
22040;SDS011;11184;52.444;13.578;2023-02-02T10:08:44;9.65;;;1.52;;
22040;SDS011;11184;52.444;13.578;2023-02-02T10:11:33;14.38;;;1.80;;
22040;SDS011;11184;52.444;13.578;2023-02-02T10:17:16;8.35;;;1.83;;
22040;SDS011;11184;52.444;13.578;2023-02-02T10:20:24;3.22;;;2.10;;
22040;SDS011;11184;52.444;13.578;2023-02-02T10:23:12;13.77;;;2.33;;
22040;SDS011;11184;52.444;13.578;2023-02-02T10:28:50;12.02;;;1.80;;
22040;SDS011;11184;52.444;13.578;2023-02-02T10:34:53;10.57;;;2.15;;
22040;SDS011;11184;52.444;13.578;2023-02-02T10:40:53;13.95;;;1.52;;
22040;SDS011;11184;52.444;13.578;2023-02-02T10:43:52;6.90;;;2.40;;
22040;SDS011;11184;52.444;13.578;2023-02-02T10:46:43;7.95;;;1.65;;
22040;SDS011;11184;52.444;13.578;2023-02-02T10:49:33;10.82;;;2.53;;
22040;SDS011;11184;52.444;13.578;2023-02-02T10:52:20;11.32;;;2.22;;
22040;SDS011;11184;52.444;13.578;2023-02-02T10:55:06;9.48;;;2.25;;
22040;SDS011;11184;52.444;13.578;2023-02-02T10:58:04;9.00;;;1.88;;
22040;SDS011;11184;52.444;13.578;2023-02-02T11:00:51;9.45;;;1.63;;
22040;SDS011;11184;52.444;13.578;2023-02-02T11:03:37;8.32;;;1.00;;
22040;SDS011;11184;52.444;13.578;2023-02-02T11:06:22;6.07;;;1.95;;
22040;SDS011;11184;52.444;13.578;2023-02-02T11:09:27;8.85;;;2.00;;
22040;SDS011;11184;52.444;13.578;2023-02-02T11:12:15;8.32;;;1.48;;
22040;SDS011;11184;52.444;13.578;2023-02-02T11:15:05;7.70;;;2.08;;
22040;SDS011;11184;52.444;13.578;2023-02-02T11:17:50;7.07;;;1.77;;
22040;SDS011;11184;52.444;13.578;2023-02-02T11:20:35;8.27;;;1.95;;
22040;SDS011;11184;52.444;13.578;2023-02-02T11:23:21;4.30;;;1.80;;
22040;SDS011;11184;52.444;13.578;2023-02-02T11:26:06;9.25;;;1.83;;
22040;SDS011;11184;52.444;13.578;2023-02-02T11:28:53;20.45;;;2.40;;
22040;SDS011;11184;52.444;13.578;2023-02-02T11:31:38;2.88;;;1.20;;
22040;SDS011;11184;52.444;13.578;2023-02-02T11:34:25;5.07;;;1.35;;
22040;SDS011;11184;52.444;13.578;2023-02-02T11:37:15;10.88;;;2.08;;
22040;SDS011;11184;52.444;13.578;2023-02-02T11:43:18;11.23;;;2.28;;
22040;SDS011;11184;52.444;13.578;2023-02-02T11:46:05;11.25;;;2.47;;
22040;SDS011;11184;52.444;13.578;2023-02-02T11:49:00;9.13;;;2.63;;
22040;SDS011;11184;52.444;13.578;2023-02-02T11:51:54;12.43;;;2.05;;
22040;SDS011;11184;52.444;13.578;2023-02-02T11:54:39;6.38;;;1.77;;
22040;SDS011;11184;52.444;13.578;2023-02-02T11:57:28;10.02;;;1.80;;
22040;SDS011;11184;52.444;13.578;2023-02-02T12:00:15;8.75;;;3.65;;
22040;SDS011;11184;52.444;13.578;2023-02-02T12:03:19;9.98;;;3.05;;
22040;SDS011;11184;52.444;13.578;2023-02-02T12:06:22;14.60;;;3.92;;
22040;SDS011;11184;52.444;13.578;2023-02-02T12:09:14;12.30;;;2.63;;
22040;SDS011;11184;52.444;13.578;2023-02-02T12:12:24;14.02;;;2.30;;
22040;SDS011;11184;52.444;13.578;2023-02-02T12:15:13;5.20;;;2.08;;
22040;SDS011;11184;52.444;13.578;2023-02-02T12:21:10;7.15;;;1.50;;
22040;SDS011;11184;52.444;13.578;2023-02-02T12:24:04;7.20;;;2.45;;
22040;SDS011;11184;52.444;13.578;2023-02-02T12:27:02;8.30;;;1.40;;
22040;SDS011;11184;52.444;13.578;2023-02-02T12:29:58;4.93;;;1.77;;
22040;SDS011;11184;52.444;13.578;2023-02-02T12:33:04;8.85;;;1.70;;
22040;SDS011;11184;52.444;13.578;2023-02-02T12:50:30;6.78;;;1.40;;
22040;SDS011;11184;52.444;13.578;2023-02-02T12:56:57;4.57;;;1.20;;
22040;SDS011;11184;52.444;13.578;2023-02-02T13:02:19;5.63;;;1.40;;
22040;SDS011;11184;52.444;13.578;2023-02-02T13:08:11;8.40;;;1.92;;
22040;SDS011;11184;52.444;13.578;2023-02-02T13:10:59;4.75;;;1.08;;
22040;SDS011;11184;52.444;13.578;2023-02-02T13:13:46;6.32;;;1.83;;
22040;SDS011;11184;52.444;13.578;2023-02-02T13:16:31;8.32;;;1.90;;
22040;SDS011;11184;52.444;13.578;2023-02-02T13:19:28;3.38;;;1.17;;
22040;SDS011;11184;52.444;13.578;2023-02-02T13:22:16;6.65;;;1.50;;
22040;SDS011;11184;52.444;13.578;2023-02-02T13:25:04;17.85;;;1.38;;
22040;SDS011;11184;52.444;13.578;2023-02-02T13:27:51;7.57;;;1.98;;
22040;SDS011;11184;52.444;13.578;2023-02-02T13:30:37;4.88;;;1.77;;
22040;SDS011;11184;52.444;13.578;2023-02-02T13:33:24;3.28;;;1.38;;
22040;SDS011;11184;52.444;13.578;2023-02-02T13:36:19;6.75;;;1.40;;
22040;SDS011;11184;52.444;13.578;2023-02-02T13:39:12;7.05;;;1.50;;
22040;SDS011;11184;52.444;13.578;2023-02-02T13:41:58;5.97;;;1.45;;
22040;SDS011;11184;52.444;13.578;2023-02-02T13:44:45;7.75;;;1.38;;
22040;SDS011;11184;52.444;13.578;2023-02-02T13:47:35;6.50;;;1.00;;
22040;SDS011;11184;52.444;13.578;2023-02-02T13:50:21;8.02;;;1.42;;
22040;SDS011;11184;52.444;13.578;2023-02-02T13:53:26;4.10;;;1.30;;
22040;SDS011;11184;52.444;13.578;2023-02-02T13:56:22;4.18;;;0.68;;
22040;SDS011;11184;52.444;13.578;2023-02-02T13:59:13;2.83;;;1.05;;
22040;SDS011;11184;52.444;13.578;2023-02-02T14:02:07;6.03;;;1.77;;
22040;SDS011;11184;52.444;13.578;2023-02-02T14:04:57;7.97;;;2.25;;
22040;SDS011;11184;52.444;13.578;2023-02-02T14:07:43;2.28;;;1.25;;
22040;SDS011;11184;52.444;13.578;2023-02-02T14:10:30;4.32;;;1.40;;
22040;SDS011;11184;52.444;13.578;2023-02-02T14:13:16;4.43;;;1.38;;
22040;SDS011;11184;52.444;13.578;2023-02-02T14:16:22;3.80;;;2.35;;
22040;SDS011;11184;52.444;13.578;2023-02-02T14:19:13;10.27;;;4.80;;
22040;SDS011;11184;52.444;13.578;2023-02-02T14:21:59;5.32;;;2.70;;
22040;SDS011;11184;52.444;13.578;2023-02-02T14:27:39;8.35;;;2.63;;
22040;SDS011;11184;52.444;13.578;2023-02-02T14:30:25;6.32;;;2.17;;
22040;SDS011;11184;52.444;13.578;2023-02-02T14:36:10;8.45;;;3.00;;
22040;SDS011;11184;52.444;13.578;2023-02-02T14:38:58;6.43;;;5.00;;
22040;SDS011;11184;52.444;13.578;2023-02-02T14:41:50;8.73;;;2.08;;
22040;SDS011;11184;52.444;13.578;2023-02-02T14:47:59;3.40;;;2.45;;
22040;SDS011;11184;52.444;13.578;2023-02-02T14:50:54;2.08;;;1.70;;
22040;SDS011;11184;52.444;13.578;2023-02-02T14:53:40;2.92;;;1.70;;
22040;SDS011;11184;52.444;13.578;2023-02-02T14:56:44;3.45;;;1.45;;
22040;SDS011;11184;52.444;13.578;2023-02-02T14:59:38;5.50;;;1.20;;
22040;SDS011;11184;52.444;13.578;2023-02-02T15:02:29;3.22;;;1.10;;
22040;SDS011;11184;52.444;13.578;2023-02-02T15:08:19;5.32;;;2.08;;
22040;SDS011;11184;52.444;13.578;2023-02-02T15:11:06;3.58;;;1.42;;
22040;SDS011;11184;52.444;13.578;2023-02-02T15:14:12;5.18;;;2.13;;
22040;SDS011;11184;52.444;13.578;2023-02-02T15:20:05;5.20;;;1.83;;
22040;SDS011;11184;52.444;13.578;2023-02-02T15:25:40;3.60;;;1.70;;
22040;SDS011;11184;52.444;13.578;2023-02-02T15:28:37;8.30;;;1.52;;
22040;SDS011;11184;52.444;13.578;2023-02-02T15:31:46;4.60;;;1.27;;
22040;SDS011;11184;52.444;13.578;2023-02-02T15:34:39;2.13;;;1.20;;
22040;SDS011;11184;52.444;13.578;2023-02-02T15:37:26;3.72;;;1.15;;
22040;SDS011;11184;52.444;13.578;2023-02-02T15:40:15;5.25;;;1.55;;
22040;SDS011;11184;52.444;13.578;2023-02-02T15:43:02;5.05;;;1.15;;
22040;SDS011;11184;52.444;13.578;2023-02-02T15:45:50;2.90;;;1.33;;
22040;SDS011;11184;52.444;13.578;2023-02-02T15:48:36;6.18;;;1.40;;
22040;SDS011;11184;52.444;13.578;2023-02-02T15:51:21;4.40;;;1.58;;
22040;SDS011;11184;52.444;13.578;2023-02-02T15:54:17;3.75;;;1.33;;
22040;SDS011;11184;52.444;13.578;2023-02-02T15:57:19;4.93;;;1.60;;
22040;SDS011;11184;52.444;13.578;2023-02-02T16:00:21;5.95;;;1.75;;
22040;SDS011;11184;52.444;13.578;2023-02-02T16:03:13;3.17;;;1.60;;
22040;SDS011;11184;52.444;13.578;2023-02-02T16:06:02;2.88;;;1.73;;
22040;SDS011;11184;52.444;13.578;2023-02-02T16:08:48;7.70;;;1.88;;
22040;SDS011;11184;52.444;13.578;2023-02-02T16:11:33;3.03;;;1.42;;
22040;SDS011;11184;52.444;13.578;2023-02-02T16:14:24;4.43;;;1.40;;
22040;SDS011;11184;52.444;13.578;2023-02-02T16:17:09;9.20;;;2.13;;
22040;SDS011;11184;52.444;13.578;2023-02-02T16:20:02;12.93;;;2.45;;
22040;SDS011;11184;52.444;13.578;2023-02-02T16:22:51;5.30;;;1.75;;
22040;SDS011;11184;52.444;13.578;2023-02-02T16:25:37;6.90;;;1.50;;
22040;SDS011;11184;52.444;13.578;2023-02-02T16:28:25;10.95;;;1.50;;
22040;SDS011;11184;52.444;13.578;2023-02-02T16:31:09;3.92;;;1.58;;
22040;SDS011;11184;52.444;13.578;2023-02-02T16:33:56;2.40;;;1.48;;
22040;SDS011;11184;52.444;13.578;2023-02-02T16:36:43;4.13;;;1.60;;
22040;SDS011;11184;52.444;13.578;2023-02-02T16:39:27;4.60;;;1.88;;
22040;SDS011;11184;52.444;13.578;2023-02-02T16:45:31;3.17;;;1.95;;
22040;SDS011;11184;52.444;13.578;2023-02-02T16:48:38;4.35;;;1.63;;
22040;SDS011;11184;52.444;13.578;2023-02-02T16:51:24;5.55;;;2.85;;
22040;SDS011;11184;52.444;13.578;2023-02-02T16:54:12;3.70;;;2.05;;
22040;SDS011;11184;52.444;13.578;2023-02-02T16:57:01;5.35;;;2.13;;
22040;SDS011;11184;52.444;13.578;2023-02-02T16:59:48;3.03;;;1.70;;
22040;SDS011;11184;52.444;13.578;2023-02-02T17:02:35;3.50;;;2.17;;
22040;SDS011;11184;52.444;13.578;2023-02-02T17:05:22;6.40;;;3.53;;
22040;SDS011;11184;52.444;13.578;2023-02-02T17:08:07;7.32;;;2.67;;
22040;SDS011;11184;52.444;13.578;2023-02-02T17:11:03;5.30;;;2.25;;
22040;SDS011;11184;52.444;13.578;2023-02-02T17:13:48;5.63;;;2.10;;
22040;SDS011;11184;52.444;13.578;2023-02-02T17:16:33;5.30;;;2.33;;
22040;SDS011;11184;52.444;13.578;2023-02-02T17:19:17;7.78;;;3.63;;
22040;SDS011;11184;52.444;13.578;2023-02-02T17:22:02;11.23;;;4.47;;
22040;SDS011;11184;52.444;13.578;2023-02-02T17:24:48;6.75;;;3.03;;
22040;SDS011;11184;52.444;13.578;2023-02-02T17:27:33;4.68;;;2.60;;
22040;SDS011;11184;52.444;13.578;2023-02-02T17:30:18;10.50;;;3.35;;
22040;SDS011;11184;52.444;13.578;2023-02-02T17:33:04;9.02;;;5.28;;
22040;SDS011;11184;52.444;13.578;2023-02-02T17:35:49;25.58;;;12.38;;
22040;SDS011;11184;52.444;13.578;2023-02-02T17:38:36;16.75;;;8.77;;
22040;SDS011;11184;52.444;13.578;2023-02-02T17:41:21;12.75;;;7.28;;
22040;SDS011;11184;52.444;13.578;2023-02-02T17:44:05;13.15;;;6.82;;
22040;SDS011;11184;52.444;13.578;2023-02-02T17:46:51;23.27;;;11.23;;